This is the latest recevied weather packets stored in our database for station/object K9RCP-24. If no packets are shown the sender has not sent any weather packets the latest 10 day(s).
| Time | Temp. | Humidity | Pressure | Rain* | Wind** | Luminosity | Snow |
|---|---|---|---|---|---|---|---|
| 1777940299 | 23.33° C | 54% | 1013.5 hPa | 0 mm | - | - | - |
| 1777939918 | 23.33° C | 55% | 1013.5 hPa | 0 mm | - | - | - |
| 1777939265 | 23.33° C | 53% | 1013.9 hPa | 0 mm | - | - | - |
| 1777938893 | 23.33° C | 53% | 1013.9 hPa | 0 mm | - | - | - |
| 1777938111 | -17.78° C | 100% | 1013.9 hPa | 0 mm | - | - | - |
| 1777937853 | -17.78° C | 100% | 1013.9 hPa | 0 mm | - | - | - |
| 1777936485 | 23.33° C | 54% | 1014.2 hPa | 0 mm | - | - | - |
| 1777936238 | 23.33° C | 54% | 1013.9 hPa | 0 mm | - | - | - |
| 1777935858 | 23.33° C | 55% | 1014.2 hPa | 0 mm | - | - | - |
| 1777935027 | 23.33° C | 54% | 1014.2 hPa | 0 mm | - | - | - |
| 1777934770 | 23.33° C | 55% | 1014.6 hPa | 0 mm | - | - | - |
| 1777933771 | 22.78° C | 55% | 1014.6 hPa | 0 mm | - | - | - |
| 1777933396 | 22.78° C | 55% | 1014.6 hPa | 0 mm | - | - | - |
| 1777932768 | 22.22° C | 55% | 1014.6 hPa | 0 mm | - | - | - |
| 1777932520 | 22.22° C | 56% | 1014.6 hPa | 0 mm | - | - | - |
| 1777932397 | 22.22° C | 55% | 1014.6 hPa | 0 mm | - | - | - |
| 1777929773 | 21.11° C | 57% | 1015.2 hPa | 0 mm | - | - | - |
| 1777929372 | 20.56° C | 59% | 1015.2 hPa | 0 mm | - | - | - |
| 1777929088 | 20.56° C | 59% | 1015.6 hPa | 0 mm | - | - | - |
| 1777928963 | 21.11° C | 58% | 1015.6 hPa | 0 mm | - | - | - |
| 1777928246 | 20.56° C | 60% | 1015.6 hPa | 0 mm | - | - | - |
| 1777925745 | 20° C | 59% | 1015.9 hPa | 0 mm | - | - | - |
| 1777924833 | 19.44° C | 60% | 1016.3 hPa | 0 mm | - | - | - |
| 1777924452 | 18.89° C | 61% | 1015.9 hPa | 0 mm | - | - | - |
| 1777923924 | 18.33° C | 62% | 1016.3 hPa | 0 mm | - | - | - |
* Rain latest hour (hover to see other rain measurements)
** Current wind speed in m/s (hover to see current wind gust speed)